Time;durP1;ratioP1;P1;durP2;ratioP2;P2;SDS_P1;SDS_P2;PMS_P1;PMS_P2;Temp;Humidity;BMP_temperature;BMP_pressure;BME280_temperature;BME280_humidity;BME280_pressure;Samples;Min_cycle;Max_cycle;Signal;HPM_P1;HPM_P2
2021/07/03 00:01:54;;;;;;;5.70;4.78;;;;;;;28.86;32.64;101051.84;5073245;28;20032;-81
2021/07/03 00:04:21;;;;;;;6.00;4.93;;;;;;;28.85;32.88;101059.50;5055259;28;20383;-79
2021/07/03 00:06:46;;;;;;;9.02;5.60;;;;;;;28.80;33.05;101050.78;5072621;28;20138;-75
2021/07/03 00:09:12;;;;;;;9.27;6.07;;;;;;;28.82;33.22;101056.75;5073258;28;20550;-74
2021/07/03 00:11:39;;;;;;;9.60;5.32;;;;;;;28.75;33.25;101046.44;5073108;28;20028;-74
2021/07/03 00:14:05;;;;;;;9.13;5.82;;;;;;;28.73;33.36;101043.28;5073081;28;20020;-74
2021/07/03 00:16:31;;;;;;;8.00;5.65;;;;;;;28.69;33.20;101051.75;5073342;28;20044;-74
2021/07/03 00:18:57;;;;;;;6.35;5.40;;;;;;;28.70;33.30;101053.34;5072985;28;20084;-74
2021/07/03 00:21:22;;;;;;;10.23;5.95;;;;;;;28.67;33.24;101059.84;5073087;28;20121;-81
2021/07/03 00:23:48;;;;;;;7.38;5.60;;;;;;;28.66;33.64;101052.63;5072873;28;20032;-81
2021/07/03 00:26:14;;;;;;;10.68;8.40;;;;;;;28.57;33.63;101046.78;5072797;28;20025;-74
2021/07/03 00:28:39;;;;;;;7.07;5.05;;;;;;;28.62;33.45;101046.25;5072804;28;20032;-86
2021/07/03 00:31:05;;;;;;;6.15;4.38;;;;;;;28.61;33.46;101050.31;5073213;28;20025;-85
2021/07/03 00:33:30;;;;;;;6.47;5.47;;;;;;;28.59;33.39;101038.69;5073058;28;20356;-77
2021/07/03 00:35:56;;;;;;;6.45;5.07;;;;;;;28.55;33.60;101037.16;5072940;28;20028;-85
2021/07/03 00:38:21;;;;;;;8.23;5.15;;;;;;;28.48;33.51;101036.06;5072821;28;20025;-79
2021/07/03 00:40:47;;;;;;;7.07;5.15;;;;;;;28.50;33.52;101037.69;5072714;28;20551;-77
2021/07/03 00:43:13;;;;;;;5.53;4.88;;;;;;;28.49;33.58;101042.50;5073182;28;20075;-86
2021/07/03 00:45:40;;;;;;;14.85;6.93;;;;;;;28.39;33.54;101027.41;5073110;28;20090;-81
2021/07/03 00:48:05;;;;;;;5.53;4.85;;;;;;;28.42;33.52;101034.22;5073125;28;20036;-74
2021/07/03 00:50:31;;;;;;;7.47;5.25;;;;;;;28.40;33.46;101034.63;5072581;28;20032;-82
2021/07/03 00:52:57;;;;;;;6.82;5.00;;;;;;;28.41;33.35;101029.78;5072328;28;20020;-75
2021/07/03 00:55:23;;;;;;;5.75;5.15;;;;;;;28.41;33.54;101032.59;5054729;28;20031;-79
2021/07/03 00:57:49;;;;;;;6.03;5.25;;;;;;;28.38;33.58;101031.44;5072965;28;20032;-74
2021/07/03 01:00:16;;;;;;;9.30;5.93;;;;;;;28.36;33.66;101027.47;5072545;28;20060;-88
2021/07/03 01:02:42;;;;;;;12.65;6.57;;;;;;;28.39;33.47;101024.59;5072552;28;20441;-83
2021/07/03 01:05:08;;;;;;;13.90;6.03;;;;;;;28.31;33.69;101019.53;5072558;28;20029;-78
2021/07/03 01:07:34;;;;;;;7.05;5.40;;;;;;;28.30;33.71;101027.19;5072608;28;20064;-86
2021/07/03 01:10:00;;;;;;;6.32;5.38;;;;;;;28.31;33.80;101023.13;5072409;28;20092;-79
2021/07/03 01:12:25;;;;;;;6.00;5.35;;;;;;;28.31;33.86;101020.31;5072535;28;20527;-81
2021/07/03 01:14:51;;;;;;;7.88;5.68;;;;;;;28.33;34.00;101017.09;5072288;28;20032;-74
2021/07/03 01:17:18;;;;;;;6.78;5.07;;;;;;;28.34;33.84;101015.84;5073084;28;20471;-75
2021/07/03 01:19:48;;;;;;;6.93;5.53;;;;;;;28.31;34.01;101016.72;5075524;28;20056;-74
2021/07/03 01:22:14;;;;;;;9.07;5.55;;;;;;;28.29;33.93;101025.56;5075739;28;20542;-74
2021/07/03 01:24:40;;;;;;;7.50;5.05;;;;;;;28.26;33.94;101022.78;5076149;28;20117;-76
2021/07/03 01:27:08;;;;;;;7.93;6.18;;;;;;;28.23;34.04;101013.22;5075978;28;20025;-74
2021/07/03 01:29:34;;;;;;;6.82;5.15;;;;;;;28.18;33.96;101014.50;5076114;28;20483;-84
2021/07/03 01:32:02;;;;;;;6.50;5.35;;;;;;;28.16;33.85;101002.91;5056730;28;20029;-74
2021/07/03 01:34:29;;;;;;;6.95;5.78;;;;;;;28.17;34.05;100998.84;5075648;28;20103;-79
2021/07/03 01:36:55;;;;;;;6.13;5.32;;;;;;;28.18;34.08;100999.66;5075858;28;20025;-74
2021/07/03 01:39:22;;;;;;;9.27;5.85;;;;;;;28.18;34.10;101006.06;5075922;28;20032;-75
2021/07/03 01:41:48;;;;;;;7.97;5.57;;;;;;;28.15;34.04;100997.72;5058107;28;20016;-78
2021/07/03 01:44:27;;;;;;;8.68;6.25;;;;;;;28.07;34.36;100996.25;5075606;28;20081;-74
2021/07/03 01:46:58;;;;;;;8.63;5.60;;;;;;;28.14;34.40;100996.13;5075551;28;20027;-77
2021/07/03 01:49:27;;;;;;;11.07;6.38;;;;;;;28.11;34.48;101000.59;5075810;28;20056;-75
2021/07/03 01:51:54;;;;;;;7.38;5.95;;;;;;;28.10;34.30;100996.16;5075802;28;20035;-74
2021/07/03 01:54:20;;;;;;;7.82;6.60;;;;;;;28.06;34.60;100992.66;5075871;28;20029;-84
2021/07/03 01:56:57;;;;;;;8.88;6.30;;;;;;;28.03;34.64;101003.91;5075640;28;20516;-85
2021/07/03 01:59:29;;;;;;;7.63;5.80;;;;;;;28.05;34.72;100993.88;5075684;28;20417;-75
2021/07/03 02:01:57;;;;;;;8.63;5.95;;;;;;;28.07;34.74;100993.44;5075691;28;20028;-75
2021/07/03 02:04:24;;;;;;;9.23;6.45;;;;;;;28.09;35.06;100991.78;5075705;28;20028;-88
2021/07/03 02:06:50;;;;;;;7.78;5.55;;;;;;;28.09;34.79;100988.97;5074352;28;20024;-76
2021/07/03 02:09:16;;;;;;;7.15;5.55;;;;;;;28.05;34.76;100979.81;5057509;28;20504;-80
2021/07/03 02:11:43;;;;;;;6.90;6.10;;;;;;;28.02;34.93;100980.66;5054104;28;20419;-76
2021/07/03 02:14:09;;;;;;;8.98;5.90;;;;;;;28.01;35.15;100973.47;5055132;28;20032;-76
2021/07/03 02:16:36;;;;;;;7.47;6.18;;;;;;;28.01;35.22;100981.88;5055431;28;20017;-75
2021/07/03 02:19:03;;;;;;;8.95;6.18;;;;;;;27.95;35.06;100977.97;5054829;28;20514;-83
2021/07/03 02:21:29;;;;;;;8.57;6.22;;;;;;;27.91;35.22;100972.44;5054813;28;20475;-88
2021/07/03 02:23:54;;;;;;;7.35;6.15;;;;;;;27.91;35.27;100975.25;5055084;28;20100;-78
2021/07/03 02:26:25;;;;;;;7.07;5.55;;;;;;;27.93;35.36;100972.78;5055003;28;20036;-86
2021/07/03 02:28:51;;;;;;;7.05;5.60;;;;;;;27.91;35.28;100966.03;5054347;28;20017;-75
2021/07/03 02:31:17;;;;;;;7.05;5.97;;;;;;;27.88;35.35;100964.84;5055064;28;20132;-83
2021/07/03 02:33:44;;;;;;;10.32;6.07;;;;;;;27.90;35.32;100968.03;5055020;28;20021;-74
2021/07/03 02:36:10;;;;;;;8.30;6.57;;;;;;;27.90;35.45;100967.25;5055939;28;20025;-75
2021/07/03 02:38:35;;;;;;;7.90;6.00;;;;;;;27.79;35.48;100967.41;5056893;28;20127;-83
2021/07/03 02:41:01;;;;;;;9.60;6.10;;;;;;;27.81;35.49;100961.34;5058027;28;20029;-77
2021/07/03 02:43:27;;;;;;;11.57;6.15;;;;;;;27.71;35.71;100967.94;5057819;28;20080;-74
2021/07/03 02:45:52;;;;;;;8.18;6.40;;;;;;;27.73;35.81;100959.88;5054557;28;20100;-74
2021/07/03 02:48:18;;;;;;;11.15;6.32;;;;;;;27.70;35.78;100950.31;5054702;28;20047;-74
2021/07/03 02:50:44;;;;;;;6.55;5.90;;;;;;;27.69;35.71;100953.56;5054595;28;20041;-74
2021/07/03 02:53:10;;;;;;;12.50;6.90;;;;;;;27.65;35.78;100945.94;5054729;28;20036;-78
2021/07/03 02:55:36;;;;;;;8.77;5.75;;;;;;;27.65;35.73;100940.31;5054503;28;20037;-86
2021/07/03 02:58:01;;;;;;;7.15;6.45;;;;;;;27.65;35.61;100937.50;5054381;28;20086;-75
2021/07/03 03:00:27;;;;;;;8.95;6.65;;;;;;;27.65;35.57;100940.31;5054247;28;20043;-75
2021/07/03 03:02:52;;;;;;;13.18;6.65;;;;;;;27.67;35.66;100942.75;5054281;28;20040;-74
2021/07/03 03:05:18;;;;;;;13.32;7.80;;;;;;;27.56;36.20;100945.69;5054242;28;20036;-86
2021/07/03 03:07:44;;;;;;;11.35;8.68;;;;;;;27.39;36.51;100935.53;5036581;28;20051;-75
2021/07/03 03:10:13;;;;;;;14.20;8.43;;;;;;;27.40;36.75;100936.31;5054197;28;20029;-75
2021/07/03 03:12:39;;;;;;;15.80;9.30;;;;;;;27.28;37.08;100935.69;5054099;28;20029;-83
2021/07/03 03:15:06;;;;;;;11.77;9.13;;;;;;;27.32;37.15;100930.03;5053965;28;20082;-74
2021/07/03 03:17:31;;;;;;;11.45;8.73;;;;;;;27.29;37.33;100928.06;5053838;28;20112;-75
2021/07/03 03:19:57;;;;;;;11.88;9.07;;;;;;;27.28;37.23;100924.47;5053746;28;20139;-74
2021/07/03 03:22:23;;;;;;;15.40;8.90;;;;;;;27.32;37.30;100921.59;5053885;28;20082;-84
2021/07/03 03:24:48;;;;;;;18.83;10.10;;;;;;;27.42;37.20;100917.03;5054153;28;20025;-75
2021/07/03 03:27:14;;;;;;;11.65;8.25;;;;;;;27.48;37.05;100918.94;5053748;28;20033;-74
2021/07/03 03:29:40;;;;;;;14.90;9.05;;;;;;;27.46;36.94;100915.00;5054064;28;20438;-74
2021/07/03 03:32:07;;;;;;;12.32;9.10;;;;;;;27.50;36.93;100918.53;5053924;28;20029;-85
2021/07/03 03:34:32;;;;;;;10.48;8.43;;;;;;;27.49;37.25;100906.50;5053710;28;20123;-86
2021/07/03 03:36:58;;;;;;;17.25;10.05;;;;;;;27.49;36.95;100900.88;5053930;28;20029;-81
2021/07/03 03:39:24;;;;;;;11.38;8.73;;;;;;;27.51;37.07;100898.47;5053320;28;20025;-84
2021/07/03 03:41:49;;;;;;;13.23;8.73;;;;;;;27.55;36.99;100893.59;5035672;28;20036;-74
2021/07/03 03:44:16;;;;;;;11.63;8.32;;;;;;;27.59;36.94;100885.91;5053567;28;20107;-74
2021/07/03 03:46:42;;;;;;;12.82;8.88;;;;;;;27.56;37.14;100894.38;5053837;28;20112;-81
2021/07/03 03:49:07;;;;;;;10.07;8.30;;;;;;;27.61;36.97;100894.69;5053659;28;20178;-74
2021/07/03 03:51:33;;;;;;;18.65;10.10;;;;;;;27.61;36.91;100889.06;5053604;28;20033;-75
2021/07/03 03:53:58;;;;;;;11.05;8.57;;;;;;;27.65;36.88;100894.63;5053625;28;20475;-77
2021/07/03 03:56:24;;;;;;;11.73;8.18;;;;;;;27.62;36.81;100890.66;5053606;28;20055;-88
2021/07/03 03:58:50;;;;;;;11.82;8.40;;;;;;;27.61;36.88;100883.47;5053212;28;20036;-86
2021/07/03 04:01:15;;;;;;;13.60;9.00;;;;;;;27.60;36.82;100881.88;5035689;28;20032;-75
2021/07/03 04:03:41;;;;;;;10.90;8.32;;;;;;;27.63;36.94;100875.41;5053302;28;20472;-83
2021/07/03 04:06:07;;;;;;;9.23;8.20;;;;;;;27.65;36.96;100878.56;5053617;28;20025;-78
2021/07/03 04:08:34;;;;;;;11.63;7.95;;;;;;;27.68;36.71;100874.16;5053219;28;20028;-78
2021/07/03 04:10:59;;;;;;;16.17;8.65;;;;;;;27.70;36.62;100868.13;5053190;28;20079;-74
2021/07/03 04:13:25;;;;;;;10.95;8.05;;;;;;;27.62;36.85;100868.22;5053185;28;20052;-75
2021/07/03 04:15:51;;;;;;;11.00;8.15;;;;;;;27.60;36.83;100867.84;5052948;28;20143;-80
2021/07/03 04:18:16;;;;;;;10.95;8.40;;;;;;;27.61;36.83;100866.63;5052507;28;20029;-86
2021/07/03 04:20:42;;;;;;;12.43;8.70;;;;;;;27.59;37.02;100863.47;5052852;28;20053;-86
2021/07/03 04:23:07;;;;;;;11.60;8.82;;;;;;;27.64;36.95;100864.97;5053165;28;20391;-75
2021/07/03 04:25:33;;;;;;;12.48;9.40;;;;;;;27.63;37.07;100857.78;5035466;28;20025;-88
2021/07/03 04:28:00;;;;;;;11.20;10.02;;;;;;;27.61;37.15;100860.22;5053027;28;20033;-78
2021/07/03 04:30:26;;;;;;;14.00;10.07;;;;;;;27.59;37.32;100857.84;5053087;28;20556;-74
2021/07/03 04:32:52;;;;;;;12.82;9.13;;;;;;;27.47;37.31;100857.66;5053114;28;20033;-86
2021/07/03 04:35:18;;;;;;;11.38;9.63;;;;;;;27.50;37.49;100860.38;5052808;28;20025;-75
2021/07/03 04:37:44;;;;;;;14.80;9.82;;;;;;;27.55;37.35;100871.13;5053178;28;20114;-75
2021/07/03 04:40:10;;;;;;;10.95;8.60;;;;;;;27.65;37.19;100856.13;5053217;28;20100;-88
2021/07/03 04:42:36;;;;;;;14.95;9.32;;;;;;;27.60;37.40;100858.63;5052989;28;20112;-80
2021/07/03 04:45:03;;;;;;;11.35;8.63;;;;;;;27.58;37.39;100872.28;5052862;28;20542;-75
2021/07/03 04:47:29;;;;;;;14.80;10.15;;;;;;;27.40;37.62;100872.59;5035027;28;20476;-83
2021/07/03 04:49:54;;;;;;;11.52;9.23;;;;;;;27.41;37.53;100876.19;5052646;28;20086;-80
2021/07/03 04:52:20;;;;;;;12.10;9.23;;;;;;;27.43;37.31;100882.94;5055464;28;20031;-75
2021/07/03 04:54:46;;;;;;;11.13;8.07;;;;;;;27.40;37.57;100874.59;5056664;28;20033;-88
2021/07/03 04:57:11;;;;;;;10.50;9.40;;;;;;;27.33;37.58;100889.53;5056966;28;20033;-80
2021/07/03 04:59:39;;;;;;;14.73;9.52;;;;;;;27.24;37.82;100883.66;5056703;28;20024;-87
2021/07/03 05:02:07;;;;;;;14.80;10.77;;;;;;;27.10;38.00;100874.25;5038749;28;20028;-74
2021/07/03 05:04:33;;;;;;;15.02;11.15;;;;;;;27.02;38.12;100872.72;5056767;28;20017;-74
2021/07/03 05:06:59;;;;;;;12.27;10.35;;;;;;;27.06;38.05;100878.31;5056453;28;20029;-82
2021/07/03 05:09:24;;;;;;;12.10;9.77;;;;;;;27.03;38.39;100882.72;5056515;28;20031;-76
2021/07/03 05:11:50;;;;;;;14.68;10.93;;;;;;;27.14;38.10;100877.00;5056684;28;20025;-75
2021/07/03 05:14:16;;;;;;;13.52;11.07;;;;;;;26.96;38.41;100885.63;5056420;28;20036;-75
2021/07/03 05:16:42;;;;;;;14.40;10.35;;;;;;;26.77;39.05;100880.69;5056567;28;20025;-73
2021/07/03 05:19:08;;;;;;;15.80;11.18;;;;;;;26.96;38.67;100880.00;5055529;28;20665;-73
2021/07/03 05:21:34;;;;;;;14.98;10.93;;;;;;;26.94;38.70;100874.03;5056038;28;20481;-84
2021/07/03 05:23:59;;;;;;;15.07;11.82;;;;;;;26.97;38.34;100872.41;5055898;28;20025;-74
2021/07/03 05:26:25;;;;;;;15.82;12.00;;;;;;;26.97;38.34;100873.19;5055991;28;20112;-75
2021/07/03 05:28:50;;;;;;;14.00;11.25;;;;;;;27.16;38.11;100876.56;5055921;28;20395;-84
2021/07/03 05:31:16;;;;;;;17.77;12.80;;;;;;;27.04;38.42;100884.34;5056048;28;20363;-80
2021/07/03 05:33:42;;;;;;;18.00;12.88;;;;;;;27.17;38.21;100878.16;5038043;28;20025;-73
2021/07/03 05:36:07;;;;;;;15.32;12.15;;;;;;;27.00;38.41;100880.78;5055766;28;20025;-87
2021/07/03 05:38:41;;;;;;;17.33;12.63;;;;;;;27.05;38.34;100882.31;5055493;28;20028;-74
2021/07/03 05:41:07;;;;;;;20.40;16.63;;;;;;;27.03;38.51;100888.31;5055004;28;20097;-86
2021/07/03 05:43:33;;;;;;;17.30;11.90;;;;;;;27.09;38.12;100881.06;5055975;28;20063;-87
2021/07/03 05:45:59;;;;;;;15.20;10.07;;;;;;;27.06;38.23;100876.31;5055600;28;20029;-74
2021/07/03 05:48:25;;;;;;;15.45;11.45;;;;;;;27.12;38.14;100887.81;5055528;28;20075;-75
2021/07/03 05:50:51;;;;;;;14.30;10.80;;;;;;;27.15;37.99;100889.81;5055846;28;20560;-88
2021/07/03 05:53:16;;;;;;;13.45;10.57;;;;;;;27.06;38.29;100893.13;5054287;28;20483;-75
2021/07/03 05:55:42;;;;;;;20.63;13.55;;;;;;;26.95;38.51;100889.66;5054330;28;20029;-75
2021/07/03 05:58:08;;;;;;;15.55;10.32;;;;;;;27.04;38.36;100901.16;5068634;28;20111;-75
2021/07/03 06:00:33;;;;;;;13.60;9.77;;;;;;;26.85;38.39;100887.00;5074741;28;20387;-81
2021/07/03 06:02:59;;;;;;;11.98;9.88;;;;;;;26.91;38.32;100880.50;5073830;28;20021;-75
2021/07/03 06:05:24;;;;;;;10.65;9.57;;;;;;;26.95;38.30;100875.63;5074984;28;20433;-76
2021/07/03 06:07:50;;;;;;;12.52;10.25;;;;;;;26.87;38.22;100879.75;5075143;28;20089;-89
2021/07/03 06:10:16;;;;;;;11.68;9.27;;;;;;;26.74;38.40;100876.72;5075598;28;20390;-77
2021/07/03 06:12:41;;;;;;;13.77;9.68;;;;;;;26.92;37.80;100870.09;5075079;28;20475;-86
2021/07/03 06:15:09;;;;;;;12.32;9.60;;;;;;;26.91;37.90;100874.91;5057174;28;20021;-79
2021/07/03 06:17:35;;;;;;;9.90;8.88;;;;;;;26.88;37.76;100869.31;5074869;28;20085;-88
2021/07/03 06:20:00;;;;;;;10.80;8.10;;;;;;;26.82;37.61;100874.59;5074822;28;20123;-88
2021/07/03 06:22:26;;;;;;;9.23;8.18;;;;;;;26.83;37.69;100865.00;5075259;28;20029;-89
2021/07/03 06:24:52;;;;;;;9.60;8.40;;;;;;;26.71;37.72;100866.34;5056734;28;20036;-79
2021/07/03 06:27:17;;;;;;;10.27;7.63;;;;;;;26.67;37.96;100859.97;5075550;28;20107;-76
2021/07/03 06:29:43;;;;;;;11.43;7.75;;;;;;;26.65;38.02;100861.63;5075113;28;20024;-81
2021/07/03 06:32:09;;;;;;;13.18;8.95;;;;;;;26.64;38.11;100860.84;5075061;28;20028;-90
2021/07/03 06:34:35;;;;;;;10.55;7.55;;;;;;;26.67;37.75;100862.00;5056828;28;20041;-75
2021/07/03 06:37:01;;;;;;;10.18;7.25;;;;;;;26.64;37.71;100858.03;5074826;28;20034;-76
2021/07/03 06:39:27;;;;;;;7.20;5.95;;;;;;;26.41;38.49;100857.94;5074423;28;20055;-91
2021/07/03 06:41:53;;;;;;;7.55;6.50;;;;;;;26.51;38.07;100859.78;5075345;28;20112;-76
2021/07/03 06:44:19;;;;;;;8.05;5.55;;;;;;;26.35;38.64;100865.16;5074706;28;20032;-79
2021/07/03 06:46:46;;;;;;;9.48;5.95;;;;;;;26.45;38.40;100864.28;5071301;28;20089;-75
2021/07/03 06:49:13;;;;;;;9.20;6.18;;;;;;;26.44;38.42;100869.06;5075289;28;20032;-76
2021/07/03 06:51:38;;;;;;;7.35;5.63;;;;;;;26.74;38.28;100868.31;5055678;28;20035;-75
2021/07/03 06:54:05;;;;;;;6.32;5.32;;;;;;;26.52;38.37;100861.38;5073835;28;20033;-87
2021/07/03 06:56:31;;;;;;;6.43;5.13;;;;;;;26.63;38.17;100859.25;5073943;28;20043;-75
2021/07/03 06:58:57;;;;;;;8.18;5.43;;;;;;;26.75;38.14;100855.91;5073495;28;20035;-75
2021/07/03 07:01:23;;;;;;;6.05;4.95;;;;;;;26.92;37.62;100853.25;5074046;28;20028;-82
2021/07/03 07:03:48;;;;;;;6.63;5.20;;;;;;;26.93;37.62;100852.84;5056034;28;20032;-78
2021/07/03 07:06:14;;;;;;;5.85;4.53;;;;;;;26.79;37.59;100851.03;5073178;28;20092;-75
2021/07/03 07:08:40;;;;;;;7.03;5.03;;;;;;;26.44;38.44;100849.47;5072647;28;20031;-85
2021/07/03 07:11:05;;;;;;;8.02;5.65;;;;;;;26.72;37.70;100844.72;5073959;28;20042;-92
2021/07/03 07:13:31;;;;;;;7.70;4.95;;;;;;;26.73;37.91;100846.31;5071609;28;20021;-75
2021/07/03 07:15:57;;;;;;;17.98;7.63;;;;;;;26.70;37.71;100847.16;5072720;28;20104;-78
2021/07/03 07:18:22;;;;;;;11.60;6.18;;;;;;;26.81;37.70;100848.59;5073383;28;20056;-78
2021/07/03 07:20:48;;;;;;;7.93;5.57;;;;;;;26.92;37.61;100847.66;5072550;28;20048;-81
2021/07/03 07:23:14;;;;;;;9.65;5.07;;;;;;;26.93;37.82;100847.22;5073032;28;20490;-76
2021/07/03 07:25:41;;;;;;;5.97;4.60;;;;;;;26.96;37.63;100851.19;5073062;28;20060;-74
2021/07/03 07:28:07;;;;;;;11.18;5.50;;;;;;;26.95;37.96;100847.59;5055436;28;20174;-77
2021/07/03 07:30:32;;;;;;;12.52;6.20;;;;;;;27.34;37.18;100854.63;5073075;28;20119;-75
2021/07/03 07:32:58;;;;;;;11.98;6.30;;;;;;;27.04;37.75;100855.50;5073898;28;20124;-76
2021/07/03 08:31:05;;;;;;;7.85;6.00;;;;;;;26.91;37.92;100855.28;5581032;23;20052;-75
2021/07/03 08:33:31;;;;;;;11.40;6.65;;;;;;;26.98;37.71;100851.56;4915685;29;20482;-76
2021/07/03 08:35:56;;;;;;;5.80;5.10;;;;;;;26.83;38.27;100856.59;4898638;29;20502;-75
2021/07/03 08:38:23;;;;;;;6.38;5.28;;;;;;;26.89;37.98;100854.88;4915850;29;20028;-75
2021/07/03 08:40:49;;;;;;;7.25;5.45;;;;;;;26.99;37.95;100842.75;4915779;29;20487;-76
2021/07/03 08:43:15;;;;;;;10.23;5.57;;;;;;;26.78;38.59;100840.25;4915803;29;20040;-75
2021/07/03 08:45:44;;;;;;;10.73;6.78;;;;;;;27.10;37.89;100837.78;4915707;29;20115;-75
2021/07/03 08:48:09;;;;;;;9.27;5.70;;;;;;;27.39;37.53;100842.94;4915988;29;20032;-72
2021/07/03 08:50:35;;;;;;;9.88;6.32;;;;;;;27.49;37.42;100841.97;4915829;29;20371;-72
2021/07/03 08:53:01;;;;;;;11.98;6.10;;;;;;;27.64;37.07;100837.69;4915628;29;20115;-72
2021/07/03 08:55:29;;;;;;;6.38;5.18;;;;;;;27.46;37.49;100837.22;4898802;29;20096;-72
2021/07/03 08:58:05;;;;;;;12.50;6.07;;;;;;;27.47;37.42;100843.63;4915722;29;20115;-76
2021/07/03 09:00:30;;;;;;;5.68;5.10;;;;;;;27.64;36.84;100843.31;4912223;29;20565;-76
2021/07/03 09:02:57;;;;;;;6.55;5.90;;;;;;;27.47;37.14;100841.59;4916144;29;20111;-77
2021/07/03 09:05:30;;;;;;;11.90;6.07;;;;;;;27.20;37.21;100829.63;4915910;29;20032;-87
2021/07/03 09:08:08;;;;;;;7.57;5.53;;;;;;;27.16;37.35;100831.69;4898697;29;20119;-75
2021/07/03 09:10:35;;;;;;;11.52;6.72;;;;;;;27.19;37.46;100828.03;4915555;29;20059;-78
2021/07/03 09:13:03;;;;;;;16.58;7.55;;;;;;;27.40;37.24;100824.88;4915664;29;20032;-72
2021/07/03 09:15:32;;;;;;;14.90;6.85;;;;;;;27.35;37.51;100819.75;4915471;29;20032;-71
2021/07/03 09:18:03;;;;;;;6.78;5.22;;;;;;;27.54;37.35;100827.44;4915419;29;20376;-71
2021/07/03 09:20:35;;;;;;;8.48;6.10;;;;;;;27.97;36.50;100817.50;4915356;29;20080;-70
2021/07/03 09:23:08;;;;;;;15.38;6.68;;;;;;;28.02;36.36;100814.16;4915124;29;20538;-79
2021/07/03 09:25:36;;;;;;;8.73;6.15;;;;;;;27.90;36.53;100815.63;4912832;29;20059;-71
2021/07/03 09:28:16;;;;;;;9.90;5.57;;;;;;;27.63;36.86;100813.66;4915261;29;20096;-71
2021/07/03 09:30:44;;;;;;;8.95;5.93;;;;;;;27.83;36.67;100815.75;4918980;29;20048;-72
2021/07/03 09:33:10;;;;;;;12.25;6.70;;;;;;;27.86;36.44;100812.88;4934606;29;20032;-78
2021/07/03 09:35:36;;;;;;;20.33;7.95;;;;;;;27.76;36.76;100815.88;4934411;29;20032;-81
2021/07/03 09:38:07;;;;;;;6.65;4.97;;;;;;;27.58;37.16;100811.34;4934639;29;20087;-70
2021/07/03 09:40:34;;;;;;;9.75;6.78;;;;;;;27.76;36.90;100804.66;4931893;29;20038;-80
2021/07/03 09:43:08;;;;;;;9.60;6.80;;;;;;;27.65;37.06;100797.16;4928928;29;20044;-70
2021/07/03 09:45:35;;;;;;;7.60;5.65;;;;;;;27.98;36.68;100808.63;4899698;29;20037;-71
2021/07/03 09:48:10;;;;;;;7.72;5.72;;;;;;;27.87;37.02;100805.22;4899660;29;20372;-71
2021/07/03 09:50:38;;;;;;;8.27;5.72;;;;;;;28.09;36.54;100800.00;4900170;29;20383;-71
2021/07/03 09:53:05;;;;;;;6.60;5.65;;;;;;;27.90;37.15;100807.19;4899627;29;20128;-75
2021/07/03 09:55:32;;;;;;;7.30;5.68;;;;;;;27.98;37.05;100800.22;4918032;29;20115;-71
2021/07/03 09:57:59;;;;;;;8.02;5.85;;;;;;;27.83;37.35;100802.50;4937922;29;20024;-82
